createdAt,value
2022-11-27T00:01:25.484Z,23.77
2022-11-27T00:03:53.392Z,21.98
2022-11-27T00:06:21.888Z,21.08
2022-11-27T00:08:48.962Z,23.63
2022-11-27T00:11:20.835Z,20.85
2022-11-27T00:13:48.300Z,22.08
2022-11-27T00:16:15.520Z,20.15
2022-11-27T00:18:42.858Z,18.73
2022-11-27T00:21:17.951Z,19.60
2022-11-27T00:23:45.025Z,18.95
2022-11-27T00:26:11.997Z,20.73
2022-11-27T00:28:39.160Z,19.30
2022-11-27T00:31:15.002Z,15.02
2022-11-27T00:33:41.995Z,18.00
2022-11-27T00:36:09.635Z,18.23
2022-11-27T00:38:39.164Z,20.13
2022-11-27T00:41:10.936Z,20.02
2022-11-27T00:43:43.944Z,16.27
2022-11-27T00:46:13.699Z,14.82
2022-11-27T00:48:40.940Z,15.30
2022-11-27T00:51:08.835Z,19.95
2022-11-27T00:53:35.872Z,15.20
2022-11-27T00:56:02.867Z,16.92
2022-11-27T00:58:30.770Z,13.63
2022-11-27T01:01:02.386Z,18.77
2022-11-27T01:03:29.407Z,18.23
2022-11-27T01:05:56.416Z,14.80
2022-11-27T01:08:23.513Z,14.00
2022-11-27T01:10:56.135Z,13.32
2022-11-27T01:13:24.297Z,15.48
2022-11-27T01:16:07.459Z,17.25
2022-11-27T01:18:35.088Z,14.82
2022-11-27T01:21:02.552Z,15.13
2022-11-27T01:23:29.623Z,14.77
2022-11-27T01:25:56.651Z,14.45
2022-11-27T01:28:24.020Z,17.38
2022-11-27T01:30:51.373Z,20.50
2022-11-27T01:33:18.581Z,19.20
2022-11-27T01:35:56.926Z,14.50
2022-11-27T01:38:24.193Z,20.80
2022-11-27T01:41:18.924Z,13.48
2022-11-27T01:43:46.079Z,14.38
2022-11-27T01:46:33.215Z,13.85
2022-11-27T01:49:20.776Z,16.13
2022-11-27T01:51:59.272Z,14.25
2022-11-27T01:54:30.940Z,18.30
2022-11-27T01:57:01.423Z,14.73
2022-11-27T01:59:28.428Z,14.27
2022-11-27T02:01:55.494Z,17.08
2022-11-27T02:04:22.515Z,13.73
2022-11-27T02:06:49.627Z,13.63
2022-11-27T02:09:16.566Z,17.60
2022-11-27T02:11:53.978Z,13.57
2022-11-27T02:14:37.024Z,12.98
2022-11-27T02:17:09.799Z,13.77
2022-11-27T02:19:52.008Z,13.00
2022-11-27T02:22:31.100Z,12.82
2022-11-27T02:25:13.872Z,14.20
2022-11-27T02:27:47.519Z,12.82
2022-11-27T02:32:44.633Z,9.73
2022-11-27T02:35:26.500Z,8.93
2022-11-27T02:38:02.597Z,10.90
2022-11-27T02:40:54.320Z,9.52
2022-11-27T02:43:24.393Z,10.20
2022-11-27T02:45:51.756Z,12.55
2022-11-27T02:48:24.409Z,12.98
2022-11-27T02:50:51.771Z,13.77
2022-11-27T02:53:23.643Z,10.05
2022-11-27T02:55:50.860Z,9.15
2022-11-27T02:58:19.433Z,12.63
2022-11-27T03:00:46.421Z,11.23
2022-11-27T03:03:14.804Z,10.23
2022-11-27T03:05:43.671Z,8.95
2022-11-27T03:08:51.967Z,10.20
2022-11-27T03:11:18.956Z,10.20
2022-11-27T03:13:51.268Z,8.57
2022-11-27T03:16:34.476Z,9.48
2022-11-27T03:19:15.355Z,9.27
2022-11-27T03:21:49.165Z,10.27
2022-11-27T03:26:43.919Z,8.63
2022-11-27T03:29:43.406Z,10.73
2022-11-27T03:32:10.368Z,9.20
2022-11-27T03:34:37.332Z,11.77
2022-11-27T03:37:04.468Z,12.15
2022-11-27T03:39:31.385Z,12.30
2022-11-27T03:42:17.814Z,9.40
2022-11-27T03:44:59.414Z,8.90
2022-11-27T03:47:30.372Z,9.13
2022-11-27T03:50:28.615Z,9.52
2022-11-27T03:53:26.078Z,9.23
2022-11-27T03:56:20.918Z,11.07
2022-11-27T03:59:03.743Z,10.73
2022-11-27T04:01:30.829Z,9.27
2022-11-27T04:03:57.892Z,7.72
2022-11-27T04:06:24.866Z,9.43
2022-11-27T04:08:51.918Z,9.25
2022-11-27T04:11:18.976Z,10.77
2022-11-27T04:13:45.951Z,12.15
2022-11-27T04:16:13.041Z,9.45
2022-11-27T04:18:40.147Z,9.52
2022-11-27T04:21:07.101Z,9.88
2022-11-27T04:23:34.170Z,11.75
2022-11-27T04:26:01.120Z,9.75
2022-11-27T04:28:28.145Z,10.23
2022-11-27T04:30:55.117Z,10.30
2022-11-27T04:33:22.493Z,10.23
2022-11-27T04:35:50.384Z,9.68
2022-11-27T04:38:18.072Z,10.98
2022-11-27T04:40:44.989Z,16.02
2022-11-27T04:43:12.514Z,10.60
2022-11-27T04:45:39.995Z,8.43
2022-11-27T04:48:07.046Z,11.75
2022-11-27T04:50:34.010Z,11.90
2022-11-27T04:53:01.048Z,10.35
2022-11-27T04:55:28.136Z,11.40
2022-11-27T04:57:55.102Z,10.23
2022-11-27T05:00:22.337Z,8.65
2022-11-27T05:02:49.372Z,11.30
2022-11-27T05:05:17.410Z,13.63
2022-11-27T05:07:44.520Z,11.63
2022-11-27T05:10:11.682Z,13.10
2022-11-27T05:12:38.929Z,10.52
2022-11-27T05:15:06.496Z,13.05
2022-11-27T05:17:33.515Z,12.55
2022-11-27T05:20:00.524Z,11.23
2022-11-27T05:22:27.570Z,11.88
2022-11-27T05:24:54.617Z,10.15
2022-11-27T05:27:21.657Z,12.82
2022-11-27T05:29:48.540Z,9.05
2022-11-27T05:32:15.531Z,10.77
2022-11-27T05:34:42.604Z,12.13
2022-11-27T05:37:10.688Z,11.15
2022-11-27T05:39:38.943Z,8.63
2022-11-27T05:42:06.019Z,10.68
2022-11-27T05:44:33.050Z,13.57
2022-11-27T05:47:00.148Z,7.90
2022-11-27T05:49:27.099Z,8.95
2022-11-27T05:51:54.120Z,10.57
2022-11-27T05:54:21.035Z,10.55
2022-11-27T05:56:48.028Z,12.73
2022-11-27T05:59:15.302Z,10.93
2022-11-27T06:01:42.804Z,14.55
2022-11-27T06:04:09.833Z,10.73
2022-11-27T06:06:36.805Z,11.73
2022-11-27T06:09:07.963Z,12.48
2022-11-27T06:11:38.121Z,11.20
2022-11-27T06:14:08.011Z,10.18
2022-11-27T06:16:35.034Z,10.98
2022-11-27T06:19:02.151Z,14.32
2022-11-27T06:21:29.152Z,11.38
2022-11-27T06:23:56.451Z,14.73
2022-11-27T06:26:27.756Z,14.13
2022-11-27T06:28:55.591Z,12.90
2022-11-27T06:31:24.765Z,11.75
2022-11-27T06:33:52.401Z,11.13
2022-11-27T06:36:19.725Z,10.63
2022-11-27T06:38:46.725Z,14.85
2022-11-27T06:41:18.558Z,13.02
2022-11-27T06:43:45.661Z,11.20
2022-11-27T06:46:15.486Z,11.85
2022-11-27T06:48:43.331Z,12.10
2022-11-27T06:51:11.006Z,11.25
2022-11-27T06:53:38.165Z,14.48
2022-11-27T06:56:06.545Z,12.25
2022-11-27T06:58:33.473Z,12.80
2022-11-27T07:01:01.327Z,10.65
2022-11-27T07:03:28.373Z,13.88
2022-11-27T07:05:55.496Z,13.98
2022-11-27T07:08:22.771Z,11.23
2022-11-27T07:10:49.829Z,10.65
2022-11-27T07:13:16.876Z,13.57
2022-11-27T07:15:43.964Z,16.63
2022-11-27T07:18:11.308Z,10.57
2022-11-27T07:20:38.291Z,14.73
2022-11-27T07:23:05.321Z,12.73
2022-11-27T07:25:32.419Z,13.98
2022-11-27T07:27:59.398Z,14.77
2022-11-27T07:30:26.315Z,14.38
2022-11-27T07:32:53.428Z,18.73
2022-11-27T07:35:23.306Z,17.98
2022-11-27T07:37:50.358Z,19.10
2022-11-27T07:40:18.590Z,18.17
2022-11-27T07:42:45.712Z,15.93
2022-11-27T07:45:15.606Z,21.65
2022-11-27T07:47:42.549Z,19.05
2022-11-27T07:50:10.077Z,16.85
2022-11-27T07:52:42.060Z,17.88
2022-11-27T07:55:09.657Z,18.17
2022-11-27T07:57:38.908Z,19.20
2022-11-27T08:00:14.689Z,17.08
2022-11-27T08:02:42.850Z,18.08
2022-11-27T08:05:13.056Z,23.45
2022-11-27T08:07:40.979Z,18.58
2022-11-27T08:10:08.457Z,21.95
2022-11-27T08:12:35.426Z,18.98
2022-11-27T08:15:04.778Z,20.92
2022-11-27T08:17:31.931Z,19.42
2022-11-27T08:19:59.044Z,19.55
2022-11-27T08:22:26.079Z,20.45
2022-11-27T08:24:53.058Z,21.67
2022-11-27T08:27:20.062Z,16.88
2022-11-27T08:29:47.267Z,20.85
2022-11-27T08:32:14.223Z,18.67
2022-11-27T08:34:41.280Z,16.08
2022-11-27T08:37:08.612Z,18.00
2022-11-27T08:39:35.796Z,21.75
2022-11-27T08:42:06.243Z,20.40
2022-11-27T08:44:33.377Z,17.42
2022-11-27T08:47:00.401Z,18.20
2022-11-27T08:49:27.518Z,21.42
2022-11-27T08:51:54.510Z,17.13
2022-11-27T08:54:21.436Z,19.10
2022-11-27T08:56:48.433Z,19.85
2022-11-27T08:59:15.370Z,20.77
2022-11-27T09:01:42.311Z,17.33
2022-11-27T09:04:09.270Z,16.42
2022-11-27T09:06:36.500Z,19.40
2022-11-27T09:09:05.130Z,18.92
2022-11-27T09:11:32.378Z,15.60
2022-11-27T09:14:00.275Z,19.00
2022-11-27T09:16:28.267Z,16.42
2022-11-27T09:18:55.418Z,20.33
2022-11-27T09:21:23.246Z,22.20
2022-11-27T09:23:54.428Z,19.48
2022-11-27T09:26:24.054Z,20.27
2022-11-27T09:28:58.979Z,19.80
2022-11-27T09:31:26.577Z,19.50
2022-11-27T09:33:58.722Z,17.75
2022-11-27T09:36:26.309Z,19.95
2022-11-27T09:38:56.769Z,17.05
2022-11-27T09:41:49.588Z,16.80
2022-11-27T09:44:30.027Z,17.38
2022-11-27T09:59:00.480Z,17.10
2022-11-27T10:12:06.957Z,11.23
2022-11-27T10:14:41.408Z,7.70
2022-11-27T10:18:17.338Z,8.77
2022-11-27T10:20:57.698Z,6.68
2022-11-27T10:24:28.981Z,5.50
2022-11-27T10:28:17.477Z,6.88
2022-11-27T10:36:33.015Z,6.40
2022-11-27T10:39:13.675Z,6.32
2022-11-27T10:42:55.812Z,6.35
2022-11-27T10:50:05.038Z,7.00
2022-11-27T10:52:19.529Z,5.50
2022-11-27T10:55:26.239Z,7.18
2022-11-27T10:58:32.867Z,6.22
2022-11-27T11:01:26.614Z,6.15
2022-11-27T11:04:37.050Z,11.13
2022-11-27T11:07:41.107Z,6.53
2022-11-27T11:10:39.484Z,8.52
2022-11-27T11:17:54.248Z,4.63
2022-11-27T11:43:40.512Z,5.45
2022-11-27T11:46:37.555Z,5.93
2022-11-27T11:50:04.451Z,7.75
2022-11-27T11:57:08.314Z,5.35
2022-11-27T12:00:53.113Z,5.95
2022-11-27T12:07:21.496Z,5.00
2022-11-27T12:11:02.947Z,5.20
2022-11-27T12:13:46.375Z,3.97
2022-11-27T12:16:28.322Z,4.97
2022-11-27T12:19:04.550Z,5.15
2022-11-27T12:22:00.439Z,5.10
2022-11-27T12:25:17.462Z,4.22
2022-11-27T12:30:35.895Z,7.32
2022-11-27T12:33:29.274Z,7.88
2022-11-27T12:36:29.256Z,7.03
2022-11-27T12:39:09.427Z,6.95
2022-11-27T12:42:08.037Z,7.13
2022-11-27T12:44:48.912Z,5.63
2022-11-27T12:47:37.337Z,6.93
2022-11-27T12:50:28.845Z,6.78
2022-11-27T12:53:24.556Z,6.85
2022-11-27T12:56:21.850Z,5.40
2022-11-27T12:58:59.268Z,9.60
2022-11-27T13:01:33.730Z,7.25
2022-11-27T13:04:29.246Z,7.72
2022-11-27T13:07:39.779Z,6.03
2022-11-27T13:10:53.857Z,7.60
2022-11-27T13:14:08.485Z,5.47
2022-11-27T13:16:46.711Z,6.03
2022-11-27T13:19:28.183Z,6.70
2022-11-27T13:21:57.647Z,8.88
2022-11-27T13:24:31.737Z,6.15
2022-11-27T13:27:23.828Z,6.80
2022-11-27T13:30:01.312Z,7.40
2022-11-27T13:32:37.303Z,9.40
2022-11-27T13:35:46.632Z,8.15
2022-11-27T13:38:35.006Z,7.32
2022-11-27T13:41:18.011Z,6.43
2022-11-27T13:43:48.562Z,5.05
2022-11-27T13:46:27.450Z,6.57
2022-11-27T13:49:02.993Z,5.35
2022-11-27T13:51:34.346Z,6.03
2022-11-27T13:54:18.225Z,4.13
2022-11-27T13:57:21.880Z,6.25
2022-11-27T14:00:11.401Z,4.57
2022-11-27T14:02:48.103Z,5.75
2022-11-27T14:05:19.537Z,6.28
2022-11-27T14:07:54.338Z,5.93
2022-11-27T14:10:23.464Z,6.07
2022-11-27T14:13:09.863Z,5.97
2022-11-27T14:15:45.053Z,6.03
2022-11-27T14:18:19.852Z,5.85
2022-11-27T14:21:05.790Z,5.45
2022-11-27T14:23:39.531Z,7.68
2022-11-27T14:26:17.159Z,6.43
2022-11-27T14:28:45.614Z,6.85
2022-11-27T14:31:32.080Z,9.63
2022-11-27T14:34:23.177Z,9.68
2022-11-27T14:36:56.563Z,8.40
2022-11-27T14:39:32.656Z,12.50
2022-11-27T14:42:02.263Z,7.82
2022-11-27T14:44:29.625Z,18.58
2022-11-27T14:46:58.205Z,11.52
2022-11-27T14:49:32.113Z,19.30
2022-11-27T14:52:08.429Z,29.65
2022-11-27T14:54:43.663Z,17.13
2022-11-27T14:57:24.807Z,14.05
2022-11-27T15:00:02.479Z,20.83
2022-11-27T15:02:32.010Z,14.13
2022-11-27T15:05:05.440Z,12.77
2022-11-27T15:07:43.980Z,11.18
2022-11-27T15:10:29.404Z,12.15
2022-11-27T15:12:56.557Z,9.15
2022-11-27T15:15:28.046Z,10.32
2022-11-27T15:17:57.835Z,10.60
2022-11-27T15:20:28.198Z,10.57
2022-11-27T15:22:58.166Z,8.88
2022-11-27T15:25:34.801Z,9.20
2022-11-27T15:28:02.031Z,19.67
2022-11-27T15:30:29.333Z,10.05
2022-11-27T15:32:59.734Z,9.80
2022-11-27T15:35:28.813Z,8.38
2022-11-27T15:38:08.557Z,7.57
2022-11-27T15:40:37.546Z,8.52
2022-11-27T15:45:43.307Z,9.68
2022-11-27T15:48:17.640Z,11.98
2022-11-27T15:50:51.199Z,7.45
2022-11-27T15:55:03.148Z,8.15
2022-11-27T15:57:15.336Z,7.57
2022-11-27T15:59:47.006Z,8.00
2022-11-27T16:02:19.372Z,7.70
2022-11-27T16:04:58.001Z,9.25
2022-11-27T16:10:27.514Z,13.13
2022-11-27T16:12:55.586Z,9.50
2022-11-27T16:15:23.896Z,11.10
2022-11-27T16:17:52.117Z,11.95
2022-11-27T16:20:19.056Z,16.02
2022-11-27T16:22:46.015Z,11.57
2022-11-27T16:25:16.449Z,17.33
2022-11-27T16:27:43.613Z,24.58
2022-11-27T16:30:16.994Z,24.95
2022-11-27T16:32:49.618Z,25.63
2022-11-27T16:38:18.502Z,22.23
2022-11-27T16:40:47.300Z,24.83
2022-11-27T16:43:14.666Z,18.63
2022-11-27T16:46:00.718Z,22.63
2022-11-27T16:48:36.628Z,27.20
2022-11-27T16:51:16.061Z,28.00
2022-11-27T16:53:44.977Z,28.92
2022-11-27T16:56:16.294Z,30.35
2022-11-27T16:58:48.324Z,29.67
2022-11-27T17:01:22.512Z,28.75
2022-11-27T17:03:49.973Z,26.23
2022-11-27T17:06:23.200Z,25.75
2022-11-27T17:08:56.576Z,23.27
2022-11-27T17:11:33.859Z,23.30
2022-11-27T17:14:09.358Z,27.00
2022-11-27T17:16:42.523Z,29.30
2022-11-27T17:19:18.829Z,30.90
2022-11-27T17:21:48.272Z,29.35
2022-11-27T17:24:18.304Z,32.80
2022-11-27T17:26:50.664Z,35.25
2022-11-27T17:29:18.569Z,32.50
2022-11-27T17:31:49.154Z,28.52
2022-11-27T17:34:19.265Z,26.92
2022-11-27T17:36:53.737Z,22.83
2022-11-27T17:39:24.044Z,28.70
2022-11-27T17:41:51.315Z,22.45
2022-11-27T17:44:20.829Z,24.38
2022-11-27T17:46:51.770Z,25.55
2022-11-27T17:49:27.978Z,24.75
2022-11-27T17:51:55.530Z,24.63
2022-11-27T17:54:22.988Z,25.42
2022-11-27T17:56:51.788Z,23.98
2022-11-27T17:59:20.123Z,24.30
2022-11-27T18:01:51.499Z,25.48
2022-11-27T18:04:19.541Z,24.83
2022-11-27T18:06:46.632Z,22.55
2022-11-27T18:09:13.741Z,22.77
2022-11-27T18:11:40.889Z,26.15
2022-11-27T18:14:13.679Z,22.40
2022-11-27T18:16:41.462Z,23.88
2022-11-27T18:19:09.921Z,22.27
2022-11-27T18:21:37.241Z,29.25
2022-11-27T18:27:07.710Z,26.52
2022-11-27T18:32:06.943Z,22.85
2022-11-27T18:34:34.230Z,24.42
2022-11-27T18:37:01.468Z,23.95
2022-11-27T18:39:35.239Z,24.55
2022-11-27T18:42:08.106Z,22.48
2022-11-27T18:44:45.103Z,27.33
2022-11-27T18:47:17.948Z,25.60
2022-11-27T18:49:45.378Z,21.88
2022-11-27T18:52:13.468Z,25.83
2022-11-27T18:54:40.976Z,24.65
2022-11-27T18:57:10.233Z,28.67
2022-11-27T18:59:40.028Z,26.58
2022-11-27T19:02:10.775Z,22.70
2022-11-27T19:04:41.627Z,29.60
2022-11-27T19:07:09.005Z,24.48
2022-11-27T19:09:36.712Z,24.02
2022-11-27T19:12:04.148Z,23.35
2022-11-27T19:14:38.875Z,24.65
2022-11-27T19:17:06.002Z,22.85
2022-11-27T19:19:53.885Z,22.70
2022-11-27T19:22:21.561Z,26.00
2022-11-27T19:24:49.110Z,20.88
2022-11-27T19:27:16.386Z,23.83
2022-11-27T19:29:43.649Z,28.40
2022-11-27T19:32:11.203Z,26.95
2022-11-27T19:34:38.355Z,29.10
2022-11-27T19:37:05.344Z,29.63
2022-11-27T19:39:32.460Z,31.25
2022-11-27T19:42:02.174Z,27.45
2022-11-27T19:44:31.467Z,26.30
2022-11-27T19:47:01.448Z,25.05
2022-11-27T19:49:28.615Z,30.65
2022-11-27T19:51:57.339Z,28.02
2022-11-27T19:54:27.749Z,28.17
2022-11-27T19:56:54.854Z,25.52
2022-11-27T19:59:25.996Z,27.75
2022-11-27T20:01:56.053Z,35.67
2022-11-27T20:04:28.166Z,28.50
2022-11-27T20:06:55.442Z,28.20
2022-11-27T20:09:23.031Z,27.05
2022-11-27T20:11:50.022Z,29.15
2022-11-27T20:14:17.521Z,29.90
2022-11-27T20:16:44.513Z,33.20
2022-11-27T20:19:11.581Z,33.00
2022-11-27T20:21:40.229Z,28.90
2022-11-27T20:24:07.498Z,31.58
2022-11-27T20:26:42.356Z,28.02
2022-11-27T20:31:38.475Z,32.25
2022-11-27T20:34:06.015Z,29.23
2022-11-27T20:36:34.339Z,28.95
2022-11-27T20:39:01.451Z,27.98
2022-11-27T20:41:29.201Z,30.33
2022-11-27T20:44:00.512Z,29.60
2022-11-27T20:46:29.301Z,30.67
2022-11-27T20:48:56.585Z,33.13
2022-11-27T20:51:28.739Z,32.85
2022-11-27T20:53:57.046Z,35.35
2022-11-27T20:56:24.256Z,34.22
2022-11-27T20:58:51.318Z,32.03
2022-11-27T21:01:23.768Z,31.48
2022-11-27T21:03:51.364Z,30.95
2022-11-27T21:06:20.108Z,32.60
2022-11-27T21:08:49.631Z,31.77
2022-11-27T21:11:26.667Z,28.35
2022-11-27T21:13:56.172Z,32.60
2022-11-27T21:16:24.019Z,33.28
2022-11-27T21:19:01.909Z,30.63
2022-11-27T21:21:29.268Z,33.88
2022-11-27T21:23:56.415Z,30.67
2022-11-27T21:26:23.680Z,31.25
2022-11-27T21:28:50.748Z,29.83
2022-11-27T21:31:19.785Z,32.05
2022-11-27T21:33:47.496Z,27.50
2022-11-27T21:36:14.765Z,25.08
2022-11-27T21:38:42.239Z,28.67
2022-11-27T21:41:09.999Z,25.02
2022-11-27T21:43:37.632Z,25.85
2022-11-27T21:46:09.387Z,24.73
2022-11-27T21:48:36.520Z,24.95
2022-11-27T21:51:04.000Z,24.98
2022-11-27T21:53:32.286Z,21.70
2022-11-27T21:55:59.379Z,24.55
2022-11-27T21:58:26.783Z,22.42
2022-11-27T22:00:53.926Z,25.10
2022-11-27T22:03:20.952Z,23.95
2022-11-27T22:05:47.948Z,19.45
2022-11-27T22:10:59.427Z,19.63
2022-11-27T22:13:28.401Z,26.65
2022-11-27T22:15:55.446Z,29.10
2022-11-27T22:18:23.323Z,27.50
2022-11-27T22:20:50.478Z,23.67
2022-11-27T22:23:17.688Z,28.00
2022-11-27T22:25:44.727Z,31.20
2022-11-27T22:28:11.783Z,27.05
2022-11-27T22:30:38.854Z,27.75
2022-11-27T22:33:06.085Z,28.38
2022-11-27T22:35:33.077Z,26.08
2022-11-27T22:38:00.560Z,26.35
2022-11-27T22:40:27.545Z,25.58
2022-11-27T22:42:55.358Z,24.73
2022-11-27T22:45:22.961Z,25.40
2022-11-27T22:47:50.009Z,25.38
2022-11-27T22:50:17.356Z,26.58
2022-11-27T22:52:44.425Z,23.77
2022-11-27T22:55:11.432Z,26.15
2022-11-27T22:57:38.491Z,24.27
2022-11-27T23:00:06.495Z,21.67
2022-11-27T23:02:33.725Z,24.23
2022-11-27T23:05:00.926Z,27.92
2022-11-27T23:07:28.185Z,26.75
2022-11-27T23:09:55.213Z,26.45
2022-11-27T23:12:22.186Z,27.50
2022-11-27T23:14:49.276Z,27.50
2022-11-27T23:17:16.258Z,26.15
2022-11-27T23:19:43.192Z,25.75
2022-11-27T23:22:10.194Z,26.08
2022-11-27T23:24:37.107Z,26.20
2022-11-27T23:27:04.191Z,28.63
2022-11-27T23:29:31.263Z,26.10
2022-11-27T23:31:58.360Z,26.23
2022-11-27T23:34:25.332Z,30.83
2022-11-27T23:36:52.326Z,28.35
2022-11-27T23:39:19.294Z,22.70
2022-11-27T23:41:49.325Z,28.77
2022-11-27T23:44:16.579Z,24.48
2022-11-27T23:46:43.543Z,26.38
2022-11-27T23:49:10.558Z,28.40
2022-11-27T23:51:37.608Z,26.15
2022-11-27T23:54:07.300Z,28.40
2022-11-27T23:56:34.483Z,29.52
2022-11-27T23:59:01.519Z,27.58
